Sherman, Wisconsin
Current Conditions -  °F | °C
As of 5:55 PM on Friday 19 Dec 2014 (Local Time) from KPBH Reporting Station
Overcast Overcast  
Wind Chill: 14°   Ceiling: 800
Heat Index: 22°   Visibility: 10mi
Dew Point: 20°   Wind: 6mph
Humidity: 93%   Direction: 160°SSE
Pressure: 30.21"   Gusts: NA
Location:  45.9599°N, 90.2362°W
Report Text: KPBH 192355Z AUTO 16005KT 10SM OVC008 M06/M06 A3021 RMK AO2 T10561065 11052 21058
Loading
Personal Weather Stations






























Interactive Weather Map New forecast layout! Learn more

10-Day Weather Forecast

Advertisements
Track Severe Weather on mobile